createdAt,value
2018-01-24T00:01:23.016Z,14.07
2018-01-24T00:03:51.681Z,13.25
2018-01-24T00:06:20.338Z,13.85
2018-01-24T00:08:49.020Z,11.82
2018-01-24T00:11:17.656Z,9.65
2018-01-24T00:13:46.312Z,10.45
2018-01-24T00:16:15.752Z,13.27
2018-01-24T00:18:44.409Z,17.90
2018-01-24T00:21:13.821Z,17.15
2018-01-24T00:23:42.526Z,9.77
2018-01-24T00:26:11.934Z,8.57
2018-01-24T00:28:40.576Z,15.55
2018-01-24T00:31:10.021Z,12.30
2018-01-24T00:33:38.669Z,14.27
2018-01-24T00:36:08.081Z,16.55
2018-01-24T00:38:37.634Z,12.43
2018-01-24T00:41:06.538Z,17.60
2018-01-24T00:43:35.237Z,12.65
2018-01-24T00:46:03.942Z,14.40
2018-01-24T00:48:33.357Z,13.07
2018-01-24T00:51:02.773Z,17.08
2018-01-24T00:53:31.495Z,14.20
2018-01-24T00:56:00.189Z,14.70
2018-01-24T00:58:28.860Z,15.02
2018-01-24T01:00:57.606Z,27.83
2018-01-24T01:03:27.129Z,14.25
2018-01-24T01:05:55.798Z,12.93
2018-01-24T01:08:25.242Z,22.52
2018-01-24T01:10:53.552Z,14.73
2018-01-24T01:13:22.205Z,20.08
2018-01-24T01:15:50.893Z,13.73
2018-01-24T01:18:19.537Z,22.13
2018-01-24T01:20:48.188Z,16.08
2018-01-24T01:23:16.893Z,19.15
2018-01-24T01:25:45.596Z,16.50
2018-01-24T01:28:15.077Z,18.58
2018-01-24T01:30:43.733Z,15.15
2018-01-24T01:33:12.457Z,11.02
2018-01-24T01:35:41.138Z,15.98
2018-01-24T01:38:09.818Z,10.38
2018-01-24T01:40:38.509Z,10.35
2018-01-24T01:43:07.264Z,15.88
2018-01-24T01:45:35.922Z,10.18
2018-01-24T01:48:05.353Z,14.00
2018-01-24T01:50:33.818Z,14.32
2018-01-24T01:53:02.288Z,12.10
2018-01-24T01:55:31.706Z,10.15
2018-01-24T01:58:00.637Z,9.93
2018-01-24T02:00:29.104Z,11.75
2018-01-24T02:02:57.943Z,10.82
2018-01-24T02:05:26.706Z,9.50
2018-01-24T02:07:55.206Z,14.95
2018-01-24T02:10:23.865Z,10.32
2018-01-24T02:12:52.701Z,9.30
2018-01-24T02:15:21.348Z,8.32
2018-01-24T02:17:50.005Z,6.25
2018-01-24T02:20:18.677Z,11.80
2018-01-24T02:22:47.324Z,8.63
2018-01-24T02:25:15.789Z,11.80
2018-01-24T02:27:44.114Z,8.63
2018-01-24T02:30:13.208Z,6.95
2018-01-24T02:32:42.613Z,6.03
2018-01-24T02:35:12.391Z,6.07
2018-01-24T02:37:40.883Z,7.20
2018-01-24T02:40:09.548Z,4.35
2018-01-24T02:42:38.242Z,7.15
2018-01-24T02:45:06.960Z,7.00
2018-01-24T02:47:36.370Z,7.75
2018-01-24T02:50:05.816Z,9.25
2018-01-24T02:52:34.692Z,5.45
2018-01-24T02:55:03.328Z,5.37
2018-01-24T02:57:32.006Z,8.57
2018-01-24T03:00:00.654Z,7.93
2018-01-24T03:02:29.346Z,11.48
2018-01-24T03:04:58.048Z,7.97
2018-01-24T03:07:26.745Z,5.87
2018-01-24T03:09:55.432Z,7.87
2018-01-24T03:12:24.089Z,5.40
2018-01-24T03:14:52.757Z,7.30
2018-01-24T03:17:22.157Z,6.82
2018-01-24T03:19:50.845Z,8.80
2018-01-24T03:22:19.539Z,4.90
2018-01-24T03:24:48.185Z,6.53
2018-01-24T03:27:16.832Z,12.27
2018-01-24T03:29:45.476Z,5.37
2018-01-24T03:32:14.901Z,5.80
2018-01-24T03:34:43.536Z,8.48
2018-01-24T03:37:12.208Z,11.50
2018-01-24T03:39:40.841Z,7.37
2018-01-24T03:42:10.253Z,7.78
2018-01-24T03:44:38.933Z,9.57
2018-01-24T03:47:07.586Z,10.02
2018-01-24T03:49:36.257Z,9.38
2018-01-24T03:52:04.970Z,11.02
2018-01-24T03:54:33.638Z,6.95
2018-01-24T03:57:02.339Z,15.02
2018-01-24T03:59:31.029Z,13.35
2018-01-24T04:01:59.697Z,12.77
2018-01-24T04:04:28.376Z,13.20
2018-01-24T04:06:57.037Z,15.25
2018-01-24T04:09:25.685Z,11.30
2018-01-24T04:11:54.410Z,11.23
2018-01-24T04:14:23.265Z,11.05
2018-01-24T04:16:52.402Z,9.23
2018-01-24T04:19:21.101Z,9.63
2018-01-24T04:21:49.748Z,10.10
2018-01-24T04:24:19.189Z,13.73
2018-01-24T04:26:47.844Z,10.75
2018-01-24T04:29:16.485Z,10.40
2018-01-24T04:31:45.160Z,11.85
2018-01-24T04:34:13.826Z,12.18
2018-01-24T04:36:42.467Z,9.07
2018-01-24T04:39:11.144Z,12.23
2018-01-24T04:41:39.784Z,15.27
2018-01-24T04:44:08.440Z,17.62
2018-01-24T04:46:37.885Z,13.02
2018-01-24T04:49:06.529Z,9.18
2018-01-24T04:51:35.760Z,11.50
2018-01-24T04:54:04.449Z,13.43
2018-01-24T04:56:33.117Z,10.13
2018-01-24T04:59:01.609Z,12.18
2018-01-24T05:01:29.770Z,16.62
2018-01-24T05:03:58.232Z,13.62
2018-01-24T05:06:27.653Z,10.73
2018-01-24T05:08:56.373Z,10.75
2018-01-24T05:11:24.833Z,13.10
2018-01-24T05:13:53.301Z,10.07
2018-01-24T05:16:22.563Z,12.20
2018-01-24T05:18:51.240Z,16.30
2018-01-24T05:21:19.721Z,10.48
2018-01-24T05:23:48.405Z,10.55
2018-01-24T05:26:17.061Z,15.90
2018-01-24T05:28:45.715Z,20.12
2018-01-24T05:31:15.161Z,24.45
2018-01-24T05:33:43.822Z,16.25
2018-01-24T05:36:12.472Z,12.10
2018-01-24T05:38:41.144Z,13.90
2018-01-24T05:41:09.804Z,16.92
2018-01-24T05:43:38.450Z,22.17
2018-01-24T05:46:07.896Z,18.42
2018-01-24T05:48:36.559Z,23.50
2018-01-24T05:51:05.208Z,14.95
2018-01-24T05:53:33.890Z,17.27
2018-01-24T05:56:02.541Z,20.73
2018-01-24T05:58:31.245Z,16.62
2018-01-24T06:01:00.033Z,29.27
2018-01-24T06:03:28.708Z,20.95
2018-01-24T06:05:57.393Z,26.98
2018-01-24T06:08:26.044Z,19.70
2018-01-24T06:10:55.461Z,24.05
2018-01-24T06:13:24.145Z,19.42
2018-01-24T06:15:52.809Z,15.18
2018-01-24T06:18:21.521Z,27.70
2018-01-24T06:20:50.334Z,23.15
2018-01-24T06:23:19.760Z,27.27
2018-01-24T06:25:48.416Z,27.90
2018-01-24T06:28:17.133Z,16.02
2018-01-24T06:30:45.797Z,21.77
2018-01-24T06:33:14.542Z,21.92
2018-01-24T06:35:43.905Z,15.65
2018-01-24T06:38:12.601Z,22.25
2018-01-24T06:40:41.315Z,31.35
2018-01-24T06:43:10.737Z,21.25
2018-01-24T06:45:40.420Z,27.62
2018-01-24T06:48:09.084Z,29.83
2018-01-24T06:50:37.749Z,23.75
2018-01-24T06:53:06.469Z,27.35
2018-01-24T06:55:34.796Z,20.10
2018-01-24T07:00:40.237Z,19.27
2018-01-24T07:03:09.657Z,18.90
2018-01-24T07:05:38.326Z,20.25
2018-01-24T07:08:07.187Z,19.15
2018-01-24T07:10:35.873Z,18.23
2018-01-24T07:13:15.787Z,15.05
2018-01-24T07:15:44.436Z,21.17
2018-01-24T07:18:13.909Z,15.25
2018-01-24T07:20:42.574Z,12.65
2018-01-24T07:23:11.229Z,12.20
2018-01-24T07:25:40.723Z,15.10
2018-01-24T07:28:10.199Z,13.57
2018-01-24T07:30:38.899Z,20.10
2018-01-24T07:33:07.817Z,13.73
2018-01-24T07:35:36.394Z,13.30
2018-01-24T07:38:05.746Z,12.70
2018-01-24T07:40:34.448Z,17.83
2018-01-24T07:43:03.146Z,10.98
2018-01-24T07:45:31.826Z,8.73
2018-01-24T07:48:00.535Z,16.95
2018-01-24T07:50:29.245Z,15.52
2018-01-24T07:52:58.430Z,10.40
2018-01-24T07:55:27.120Z,15.05
2018-01-24T07:57:55.842Z,21.20
2018-01-24T08:00:24.552Z,7.97
2018-01-24T08:02:53.260Z,13.30
2018-01-24T08:05:21.976Z,10.57
2018-01-24T08:07:50.697Z,14.07
2018-01-24T08:10:19.245Z,12.00
2018-01-24T08:12:48.713Z,14.27
2018-01-24T08:15:17.420Z,13.02
2018-01-24T08:17:46.103Z,9.70
2018-01-24T08:20:14.812Z,15.77
2018-01-24T08:22:43.523Z,14.63
2018-01-24T08:25:12.456Z,7.43
2018-01-24T08:27:41.149Z,8.20
2018-01-24T08:30:09.856Z,8.88
2018-01-24T08:32:39.353Z,7.30
2018-01-24T08:35:08.065Z,8.13
2018-01-24T08:37:36.765Z,8.82
2018-01-24T08:40:05.463Z,9.90
2018-01-24T08:42:34.167Z,9.48
2018-01-24T08:45:02.892Z,9.07
2018-01-24T08:47:31.613Z,17.77
2018-01-24T08:50:00.344Z,12.70
2018-01-24T08:52:29.062Z,9.25
2018-01-24T08:54:58.556Z,9.93
2018-01-24T08:57:27.292Z,13.73
2018-01-24T08:59:56.059Z,14.75
2018-01-24T09:02:24.775Z,10.93
2018-01-24T09:04:53.196Z,10.23
2018-01-24T09:07:25.156Z,10.33
2018-01-24T09:09:53.601Z,9.30
2018-01-24T09:12:22.019Z,26.03
2018-01-24T09:14:50.677Z,10.13
2018-01-24T09:17:19.116Z,10.83
2018-01-24T09:19:47.557Z,16.33
2018-01-24T09:22:16.775Z,8.97
2018-01-24T09:24:45.208Z,11.60
2018-01-24T09:27:13.636Z,13.70
2018-01-24T09:29:42.116Z,8.30
2018-01-24T09:32:10.553Z,15.73
2018-01-24T09:34:38.963Z,10.17
2018-01-24T09:37:08.191Z,9.10
2018-01-24T09:39:36.640Z,12.60
2018-01-24T09:42:05.858Z,6.90
2018-01-24T09:44:34.321Z,14.47
2018-01-24T09:47:03.516Z,6.83
2018-01-24T09:49:32.701Z,6.40
2018-01-24T09:52:01.143Z,9.93
2018-01-24T09:54:29.607Z,8.80
2018-01-24T09:56:58.924Z,7.87
2018-01-24T09:59:27.383Z,7.47
2018-01-24T10:01:55.800Z,18.33
2018-01-24T10:04:24.240Z,10.33
2018-01-24T10:06:52.712Z,12.20
2018-01-24T10:09:21.903Z,6.43
2018-01-24T10:11:51.116Z,10.90
2018-01-24T10:14:20.320Z,10.63
2018-01-24T10:16:48.732Z,6.97
2018-01-24T10:19:17.169Z,5.10
2018-01-24T10:21:45.808Z,5.13
2018-01-24T10:24:14.237Z,7.57
2018-01-24T10:26:43.473Z,8.10
2018-01-24T10:29:11.904Z,9.63
2018-01-24T10:31:41.109Z,8.43
2018-01-24T10:34:09.585Z,6.10
2018-01-24T10:36:38.788Z,11.17
2018-01-24T10:39:08.003Z,6.30
2018-01-24T10:41:36.467Z,4.50
2018-01-24T10:44:04.888Z,3.70
2018-01-24T10:46:33.319Z,3.03
2018-01-24T10:49:01.768Z,5.37
2018-01-24T10:51:30.247Z,3.43
2018-01-24T10:53:58.709Z,8.73
2018-01-24T10:56:27.330Z,4.00
2018-01-24T10:58:55.796Z,6.43
2018-01-24T11:01:24.225Z,9.70
2018-01-24T11:03:53.550Z,8.20
2018-01-24T11:06:22.742Z,8.13
2018-01-24T11:08:51.164Z,6.60
2018-01-24T11:11:19.579Z,7.63
2018-01-24T11:13:48.003Z,10.70
2018-01-24T11:16:16.424Z,6.40
2018-01-24T11:18:44.837Z,7.30
2018-01-24T11:21:13.269Z,4.73
2018-01-24T11:23:41.683Z,6.10
2018-01-24T11:26:10.121Z,3.70
2018-01-24T11:28:38.570Z,5.50
2018-01-24T11:31:06.991Z,5.90
2018-01-24T11:33:35.403Z,12.87
2018-01-24T11:36:03.855Z,12.23
2018-01-24T11:38:32.266Z,8.80
2018-01-24T11:41:01.449Z,9.57
2018-01-24T11:43:29.884Z,8.27
2018-01-24T11:45:58.426Z,6.83
2018-01-24T11:48:26.909Z,8.33
2018-01-24T11:50:55.030Z,7.70
2018-01-24T11:53:23.401Z,9.97
2018-01-24T11:55:51.790Z,8.90
2018-01-24T11:58:20.244Z,8.87
2018-01-24T12:00:48.641Z,9.47
2018-01-24T12:03:17.040Z,7.30
2018-01-24T12:05:45.447Z,8.20
2018-01-24T12:08:13.859Z,7.40
2018-01-24T12:10:43.029Z,6.30
2018-01-24T12:13:11.462Z,8.43
2018-01-24T12:15:39.860Z,7.53
2018-01-24T12:18:07.932Z,9.00
2018-01-24T12:20:36.371Z,6.57
2018-01-24T12:23:05.542Z,9.53
2018-01-24T12:25:33.960Z,6.67
2018-01-24T12:28:03.165Z,8.93
2018-01-24T12:30:32.317Z,6.00
2018-01-24T12:33:00.815Z,10.10
2018-01-24T12:35:29.224Z,5.60
2018-01-24T12:37:58.386Z,6.87
2018-01-24T12:40:26.793Z,6.97
2018-01-24T12:42:55.997Z,6.80
2018-01-24T12:45:25.181Z,8.13
2018-01-24T12:47:54.370Z,10.80
2018-01-24T12:50:22.781Z,12.63
2018-01-24T12:52:51.968Z,6.73
2018-01-24T12:55:21.177Z,5.53
2018-01-24T12:57:50.336Z,11.00
2018-01-24T13:00:18.744Z,15.13
2018-01-24T13:02:47.947Z,7.80
2018-01-24T13:05:17.136Z,10.80
2018-01-24T13:07:46.313Z,5.50
2018-01-24T13:10:14.758Z,7.40
2018-01-24T13:12:43.150Z,6.20
2018-01-24T13:15:11.565Z,10.63
2018-01-24T13:17:40.009Z,6.57
2018-01-24T13:20:08.087Z,7.67
2018-01-24T13:22:37.271Z,7.53
2018-01-24T13:25:05.726Z,5.93
2018-01-24T13:27:34.131Z,5.67
2018-01-24T13:30:02.530Z,8.10
2018-01-24T13:32:30.995Z,6.10
2018-01-24T13:34:59.271Z,7.23
2018-01-24T13:37:27.674Z,8.20
2018-01-24T13:39:56.111Z,7.10
2018-01-24T13:42:24.507Z,5.63
2018-01-24T13:44:52.919Z,8.37
2018-01-24T13:47:21.369Z,6.63
2018-01-24T13:49:49.786Z,7.37
2018-01-24T13:52:18.238Z,6.83
2018-01-24T13:54:47.626Z,7.70
2018-01-24T13:57:15.513Z,7.67
2018-01-24T13:59:43.901Z,6.17
2018-01-24T14:02:12.335Z,4.80
2018-01-24T14:04:41.510Z,9.57
2018-01-24T14:07:09.917Z,7.10
2018-01-24T14:09:39.153Z,7.53
2018-01-24T14:12:07.552Z,8.40
2018-01-24T14:14:35.761Z,8.23
2018-01-24T14:17:04.952Z,8.80
2018-01-24T14:19:33.356Z,8.23
2018-01-24T14:22:01.751Z,7.87
2018-01-24T14:24:30.342Z,5.33
2018-01-24T14:26:58.703Z,10.90
2018-01-24T14:29:27.098Z,10.57
2018-01-24T14:31:55.497Z,6.37
2018-01-24T14:34:23.909Z,8.30
2018-01-24T14:36:52.292Z,7.40
2018-01-24T14:39:20.689Z,12.43
2018-01-24T14:41:49.872Z,12.73
2018-01-24T14:44:18.261Z,14.00
2018-01-24T14:46:47.439Z,10.17
2018-01-24T14:49:15.900Z,7.27
2018-01-24T14:51:44.289Z,11.97
2018-01-24T14:54:12.676Z,6.57
2018-01-24T14:56:41.170Z,7.93
2018-01-24T14:59:09.844Z,12.48
2018-01-24T15:01:38.534Z,9.77
2018-01-24T15:04:07.199Z,7.35
2018-01-24T15:06:36.868Z,10.13
2018-01-24T15:09:04.937Z,11.35
2018-01-24T15:11:33.639Z,8.65
2018-01-24T15:14:02.304Z,8.75
2018-01-24T15:16:31.003Z,9.85
2018-01-24T15:18:59.917Z,9.30
2018-01-24T15:21:29.358Z,9.23
2018-01-24T15:23:58.089Z,23.70
2018-01-24T15:26:26.793Z,9.02
2018-01-24T15:28:55.605Z,8.48
2018-01-24T15:31:24.320Z,6.50
2018-01-24T15:33:52.974Z,12.32
2018-01-24T15:36:23.156Z,11.38
2018-01-24T15:38:51.567Z,8.52
2018-01-24T15:41:21.041Z,10.02
2018-01-24T15:43:49.737Z,11.68
2018-01-24T15:46:18.436Z,8.25
2018-01-24T15:48:46.927Z,7.87
2018-01-24T15:51:15.724Z,6.60
2018-01-24T15:53:45.149Z,8.43
2018-01-24T15:56:13.792Z,19.10
2018-01-24T15:58:42.460Z,31.08
2018-01-24T16:01:11.105Z,58.40
2018-01-24T16:03:39.767Z,55.60
2018-01-24T16:06:09.251Z,20.08
2018-01-24T16:08:37.581Z,14.52
2018-01-24T16:11:06.061Z,17.30
2018-01-24T16:13:34.720Z,10.05
2018-01-24T16:16:03.369Z,6.60
2018-01-24T16:18:32.061Z,9.98
2018-01-24T16:21:00.385Z,12.98
2018-01-24T16:23:29.149Z,6.35
2018-01-24T16:25:57.830Z,7.15
2018-01-24T16:28:26.500Z,12.50
2018-01-24T16:30:55.181Z,9.82
2018-01-24T16:33:23.914Z,13.73
2018-01-24T16:35:53.151Z,23.70
2018-01-24T16:38:21.805Z,48.90
2018-01-24T16:40:51.280Z,40.90
2018-01-24T16:43:19.948Z,30.77
2018-01-24T16:45:48.636Z,36.95
2018-01-24T16:48:17.305Z,40.10
2018-01-24T16:50:45.996Z,34.10
2018-01-24T16:53:14.652Z,29.70
2018-01-24T16:55:43.324Z,47.97
2018-01-24T16:58:12.790Z,23.50
2018-01-24T17:00:41.452Z,15.15
2018-01-24T17:03:10.099Z,14.63
2018-01-24T17:05:39.552Z,13.62
2018-01-24T17:08:08.208Z,16.37
2018-01-24T17:10:36.900Z,15.90
2018-01-24T17:13:05.545Z,20.20
2018-01-24T17:15:33.878Z,25.08
2018-01-24T17:18:02.562Z,19.48
2018-01-24T17:20:31.352Z,21.17
2018-01-24T17:23:00.003Z,30.52
2018-01-24T17:25:29.429Z,29.60
2018-01-24T17:27:58.088Z,19.55
2018-01-24T17:30:27.505Z,18.00
2018-01-24T17:32:56.960Z,11.80
2018-01-24T17:35:25.604Z,8.65
2018-01-24T17:37:54.259Z,14.70
2018-01-24T17:40:22.942Z,14.20
2018-01-24T17:42:51.261Z,22.60
2018-01-24T17:45:19.912Z,19.40
2018-01-24T17:47:48.597Z,14.93
2018-01-24T17:50:17.260Z,14.65
2018-01-24T17:52:45.909Z,12.13
2018-01-24T17:55:14.593Z,17.25
2018-01-24T17:57:43.253Z,13.43
2018-01-24T18:00:12.679Z,15.02
2018-01-24T18:02:42.132Z,22.98
2018-01-24T18:05:10.997Z,25.42
2018-01-24T18:07:39.657Z,25.88
2018-01-24T18:10:09.121Z,20.00
2018-01-24T18:12:37.777Z,21.80
2018-01-24T18:15:06.161Z,18.50
2018-01-24T18:17:35.164Z,15.90
2018-01-24T18:20:03.821Z,13.07
2018-01-24T18:22:32.482Z,16.45
2018-01-24T18:25:01.934Z,13.23
2018-01-24T18:27:33.494Z,15.45
2018-01-24T18:30:02.238Z,11.88
2018-01-24T18:32:30.936Z,12.52
2018-01-24T18:34:59.592Z,16.65
2018-01-24T18:37:28.258Z,14.43
2018-01-24T18:39:56.920Z,16.08
2018-01-24T18:42:25.609Z,17.73
2018-01-24T18:44:54.260Z,22.35
2018-01-24T18:47:23.676Z,19.60
2018-01-24T18:49:52.400Z,20.20
2018-01-24T18:52:21.070Z,16.70
2018-01-24T18:54:49.732Z,19.33
2018-01-24T18:57:18.412Z,19.55
2018-01-24T18:59:47.832Z,17.10
2018-01-24T19:02:16.491Z,14.75
2018-01-24T19:04:45.924Z,15.55
2018-01-24T19:07:14.628Z,15.48
2018-01-24T19:09:43.286Z,25.05
2018-01-24T19:12:11.999Z,17.48
2018-01-24T19:14:40.711Z,18.20
2018-01-24T19:17:09.367Z,17.35
2018-01-24T19:19:39.292Z,25.95
2018-01-24T19:22:07.986Z,12.95
2018-01-24T19:24:36.660Z,16.17
2018-01-24T19:27:05.322Z,16.80
2018-01-24T19:29:34.918Z,18.35
2018-01-24T19:32:04.333Z,14.35
2018-01-24T19:34:32.994Z,18.05
2018-01-24T19:37:01.744Z,11.80
2018-01-24T19:39:30.428Z,20.25
2018-01-24T19:41:59.100Z,17.02
2018-01-24T19:44:27.773Z,11.60
2018-01-24T19:46:56.489Z,18.83
2018-01-24T19:49:25.253Z,18.98
2018-01-24T19:51:53.968Z,20.35
2018-01-24T19:54:29.654Z,14.45
2018-01-24T19:56:58.329Z,10.77
2018-01-24T19:59:26.990Z,15.75
2018-01-24T20:01:55.690Z,14.13
2018-01-24T20:04:24.374Z,15.38
2018-01-24T20:06:53.082Z,16.08
2018-01-24T20:09:21.774Z,15.90
2018-01-24T20:11:50.428Z,9.85
2018-01-24T20:14:19.200Z,12.10
2018-01-24T20:16:50.317Z,12.95
2018-01-24T20:19:19.853Z,22.98
2018-01-24T20:21:48.533Z,48.33
2018-01-24T20:24:17.191Z,44.03
2018-01-24T20:26:45.865Z,28.12
2018-01-24T20:29:14.526Z,19.75
2018-01-24T20:31:43.253Z,22.55
2018-01-24T20:34:12.737Z,18.00
2018-01-24T20:36:41.384Z,12.75
2018-01-24T20:39:10.041Z,32.97
2018-01-24T20:41:39.471Z,23.15
2018-01-24T20:44:08.132Z,17.98
2018-01-24T20:46:36.803Z,19.50
2018-01-24T20:49:05.488Z,20.10
2018-01-24T20:51:34.146Z,15.18
2018-01-24T20:54:02.801Z,17.73
2018-01-24T20:56:31.485Z,22.45
2018-01-24T20:59:00.126Z,19.77
2018-01-24T21:01:28.772Z,19.83
2018-01-24T21:03:57.456Z,15.73
2018-01-24T21:06:26.112Z,11.75
2018-01-24T21:08:55.529Z,15.65
2018-01-24T21:11:24.189Z,11.57
2018-01-24T21:13:53.646Z,16.02
2018-01-24T21:16:22.334Z,14.65
2018-01-24T21:18:50.980Z,13.65
2018-01-24T21:21:19.630Z,13.15
2018-01-24T21:23:48.345Z,18.80
2018-01-24T21:26:17.757Z,16.83
2018-01-24T21:28:53.978Z,10.95
2018-01-24T21:34:50.945Z,11.65
2018-01-24T21:37:19.613Z,14.95
2018-01-24T21:39:48.285Z,14.25
2018-01-24T21:42:17.011Z,16.37
2018-01-24T21:44:45.870Z,19.23
2018-01-24T21:47:14.600Z,18.62
2018-01-24T21:49:43.318Z,15.68
2018-01-24T21:52:12.013Z,20.67
2018-01-24T21:54:40.702Z,17.62
2018-01-24T21:57:09.409Z,19.70
2018-01-24T21:59:38.106Z,19.70
2018-01-24T22:02:06.790Z,17.40
2018-01-24T22:04:35.512Z,20.48
2018-01-24T22:07:03.853Z,18.48
2018-01-24T22:09:32.509Z,15.05
2018-01-24T22:12:02.117Z,17.67
2018-01-24T22:14:31.617Z,14.68
2018-01-24T22:17:00.361Z,17.17
2018-01-24T22:19:29.059Z,14.73
2018-01-24T22:21:57.747Z,9.50
2018-01-24T22:24:26.461Z,6.20
2018-01-24T22:26:55.921Z,8.15
2018-01-24T22:29:24.622Z,12.25
2018-01-24T22:31:53.330Z,11.07
2018-01-24T22:34:22.757Z,13.75
2018-01-24T22:36:51.995Z,17.83
2018-01-24T22:39:20.534Z,13.93
2018-01-24T22:41:49.939Z,11.50
2018-01-24T22:44:19.221Z,10.45
2018-01-24T22:46:47.860Z,9.23
2018-01-24T22:49:16.558Z,10.15
2018-01-24T22:51:45.256Z,13.13
2018-01-24T22:54:14.232Z,13.00
2018-01-24T22:56:42.892Z,9.45
2018-01-24T22:59:11.624Z,16.00
2018-01-24T23:01:40.312Z,13.18
2018-01-24T23:04:09.000Z,12.63
2018-01-24T23:06:37.733Z,11.30
2018-01-24T23:09:06.427Z,10.30
2018-01-24T23:11:35.105Z,9.77
2018-01-24T23:14:04.546Z,9.55
2018-01-24T23:16:33.209Z,12.57
2018-01-24T23:19:01.871Z,10.40
2018-01-24T23:21:30.545Z,9.52
2018-01-24T23:23:59.294Z,12.20
2018-01-24T23:26:28.117Z,11.93
2018-01-24T23:28:56.839Z,14.18
2018-01-24T23:31:25.602Z,12.00
2018-01-24T23:33:54.279Z,10.27
2018-01-24T23:36:23.200Z,12.02
2018-01-24T23:38:52.104Z,12.82
2018-01-24T23:41:20.793Z,12.73
2018-01-24T23:43:49.488Z,11.55
2018-01-24T23:46:18.139Z,12.25
2018-01-24T23:48:46.797Z,18.33
2018-01-24T23:51:15.543Z,8.20
2018-01-24T23:53:44.441Z,13.52
2018-01-24T23:56:13.137Z,13.40
2018-01-24T23:58:41.895Z,9.57
